createdAt,value
2019-04-25T00:01:49.725Z,94775.45
2019-04-25T00:04:21.531Z,94783.62
2019-04-25T00:06:52.156Z,94784.70
2019-04-25T00:09:23.626Z,94784.00
2019-04-25T00:11:53.283Z,94779.42
2019-04-25T00:14:23.783Z,94780.20
2019-04-25T00:16:54.841Z,94774.76
2019-04-25T00:19:24.565Z,94778.36
2019-04-25T00:21:58.735Z,94786.14
2019-04-25T00:24:39.604Z,94790.34
2019-04-25T00:27:09.597Z,94790.45
2019-04-25T00:29:39.301Z,94794.06
2019-04-25T00:32:09.054Z,94787.32
2019-04-25T00:34:38.778Z,94788.63
2019-04-25T00:37:09.372Z,94801.17
2019-04-25T00:39:38.995Z,94802.95
2019-04-25T00:42:08.653Z,94810.71
2019-04-25T00:44:38.339Z,94803.37
2019-04-25T00:47:08.080Z,94806.45
2019-04-25T00:49:37.781Z,94804.36
2019-04-25T00:52:07.449Z,94807.62
2019-04-25T00:54:37.070Z,94807.16
2019-04-25T00:57:06.689Z,94810.55
2019-04-25T00:59:37.977Z,94796.66
2019-04-25T01:02:21.401Z,94801.56
2019-04-25T01:04:52.090Z,94791.45
2019-04-25T01:07:23.945Z,94790.14
2019-04-25T01:09:54.556Z,94800.52
2019-04-25T01:12:24.611Z,94809.30
2019-04-25T01:14:54.764Z,94804.48
2019-04-25T01:17:25.003Z,94800.69
2019-04-25T01:19:56.927Z,94795.34
2019-04-25T01:22:25.967Z,94784.84
2019-04-25T01:24:56.076Z,94780.39
2019-04-25T01:27:25.787Z,94781.52
2019-04-25T01:29:56.345Z,94780.08
2019-04-25T01:32:30.561Z,94775.45
2019-04-25T01:35:01.856Z,94779.17
2019-04-25T01:37:34.078Z,94788.77
2019-04-25T01:40:25.224Z,94777.52
2019-04-25T01:43:03.739Z,94776.28
2019-04-25T01:45:35.016Z,94765.98
2019-04-25T01:48:05.789Z,94773.67
2019-04-25T01:50:35.409Z,94777.10
2019-04-25T01:53:05.032Z,94776.75
2019-04-25T01:55:34.680Z,94768.45
2019-04-25T01:58:04.292Z,94777.89
2019-04-25T02:00:35.597Z,94772.08
2019-04-25T02:03:05.484Z,94769.14
2019-04-25T02:05:35.218Z,94771.91
2019-04-25T02:08:06.935Z,94770.95
2019-04-25T02:10:36.326Z,94773.56
2019-04-25T02:13:07.652Z,94772.09
2019-04-25T02:15:37.457Z,94776.30
2019-04-25T02:18:07.076Z,94776.46
2019-04-25T02:20:36.765Z,94771.20
2019-04-25T02:23:06.409Z,94773.22
2019-04-25T02:25:36.025Z,94768.91
2019-04-25T02:28:05.802Z,94777.63
2019-04-25T02:30:35.860Z,94769.20
2019-04-25T02:33:08.565Z,94771.30
2019-04-25T02:35:37.338Z,94773.24
2019-04-25T02:38:08.810Z,94781.70
2019-04-25T02:40:38.312Z,94786.44
2019-04-25T02:43:08.385Z,94786.53
2019-04-25T02:45:40.105Z,94783.74
2019-04-25T02:48:27.440Z,94786.92
2019-04-25T02:51:07.715Z,94785.72
2019-04-25T02:53:39.130Z,94790.08
2019-04-25T02:56:27.638Z,94780.33
2019-04-25T02:58:41.470Z,94775.09
2019-04-25T03:01:19.429Z,94779.13
2019-04-25T03:03:44.922Z,94769.69
2019-04-25T03:06:15.321Z,94763.94
2019-04-25T03:08:45.331Z,94773.41
2019-04-25T03:11:15.352Z,94772.77
2019-04-25T03:13:45.181Z,94784.70
2019-04-25T03:16:14.809Z,94777.22
2019-04-25T03:18:58.925Z,94773.05
2019-04-25T03:21:30.671Z,94769.97
2019-04-25T03:24:01.440Z,94770.16
2019-04-25T03:26:39.678Z,94769.34
2019-04-25T03:29:04.659Z,94775.38
2019-04-25T03:31:34.862Z,94779.28
2019-04-25T03:34:09.795Z,94772.95
2019-04-25T03:36:36.321Z,94783.09
2019-04-25T03:39:08.678Z,94772.67
2019-04-25T03:41:38.385Z,94772.67
2019-04-25T03:44:08.055Z,94774.64
2019-04-25T03:46:37.669Z,94777.59
2019-04-25T03:49:07.609Z,94778.38
2019-04-25T03:51:37.416Z,94775.84
2019-04-25T03:54:08.513Z,94774.70
2019-04-25T03:56:49.627Z,94783.17
2019-04-25T03:59:10.577Z,94783.50
2019-04-25T04:01:40.306Z,94781.59
2019-04-25T04:04:09.922Z,94776.70
2019-04-25T04:06:39.571Z,94780.31
2019-04-25T04:09:09.820Z,94781.27
2019-04-25T04:11:39.822Z,94777.87
2019-04-25T04:14:10.295Z,94784.38
2019-04-25T04:16:41.980Z,94786.53
2019-04-25T04:19:11.673Z,94783.11
2019-04-25T04:21:45.690Z,94788.50
2019-04-25T04:24:16.947Z,94783.77
2019-04-25T04:26:48.303Z,94791.94
2019-04-25T04:29:17.921Z,94787.87
2019-04-25T04:31:47.642Z,94782.52
2019-04-25T04:34:17.263Z,94794.15
2019-04-25T04:36:46.916Z,94788.01
2019-04-25T04:39:17.711Z,94783.70
2019-04-25T04:41:47.968Z,94790.23
2019-04-25T04:44:18.153Z,94786.70
2019-04-25T04:46:47.933Z,94788.19
2019-04-25T04:49:18.325Z,94788.90
2019-04-25T04:51:48.294Z,94782.02
2019-04-25T04:54:17.925Z,94790.69
2019-04-25T04:56:47.643Z,94785.06
2019-04-25T04:59:17.268Z,94797.69
2019-04-25T05:02:03.631Z,94797.57
2019-04-25T05:07:40.009Z,94792.61
2019-04-25T05:10:10.442Z,94801.02
2019-04-25T05:12:41.072Z,94801.91
2019-04-25T05:15:14.845Z,94802.64
2019-04-25T05:17:44.021Z,94804.17
2019-04-25T05:20:15.971Z,94805.22
2019-04-25T05:22:45.148Z,94809.17
2019-04-25T05:25:16.343Z,94811.69
2019-04-25T05:27:59.575Z,94806.66
2019-04-25T05:30:21.173Z,94804.78
2019-04-25T05:32:50.839Z,94801.88
2019-04-25T05:35:20.462Z,94798.30
2019-04-25T05:37:50.127Z,94804.20
2019-04-25T05:40:20.153Z,94809.44
2019-04-25T05:42:51.586Z,94799.94
2019-04-25T05:45:23.818Z,94794.72
2019-04-25T05:47:54.383Z,94793.88
2019-04-25T05:50:25.088Z,94796.67
2019-04-25T05:52:55.138Z,94792.41
2019-04-25T05:55:25.227Z,94800.88
2019-04-25T05:57:55.198Z,94799.38
2019-04-25T06:00:25.999Z,94799.39
2019-04-25T06:02:56.034Z,94801.14
2019-04-25T06:05:26.485Z,94794.86
2019-04-25T06:07:56.897Z,94793.16
2019-04-25T06:10:34.724Z,94799.83
2019-04-25T06:13:15.164Z,94804.84
2019-04-25T06:15:46.475Z,94794.10
2019-04-25T06:18:17.773Z,94792.70
2019-04-25T06:20:47.467Z,94796.53
2019-04-25T06:23:25.583Z,94793.53
2019-04-25T06:25:55.536Z,94791.12
2019-04-25T06:28:26.829Z,94791.16
2019-04-25T06:30:56.522Z,94799.93
2019-04-25T06:33:27.191Z,94791.56
2019-04-25T06:35:57.049Z,94794.23
2019-04-25T06:38:27.536Z,94792.97
2019-04-25T06:40:58.078Z,94786.05
2019-04-25T06:43:28.521Z,94789.19
2019-04-25T06:46:18.053Z,94787.15
2019-04-25T06:48:49.357Z,94785.04
2019-04-25T06:51:18.988Z,94785.39
2019-04-25T06:53:48.661Z,94780.07
2019-04-25T06:56:18.349Z,94782.59
2019-04-25T06:58:48.007Z,94785.48
2019-04-25T07:01:17.641Z,94779.35
2019-04-25T07:03:47.299Z,94783.41
2019-04-25T07:06:16.923Z,94779.12
2019-04-25T07:08:46.599Z,94782.48
2019-04-25T07:11:16.259Z,94778.73
2019-04-25T07:13:46.019Z,94770.92
2019-04-25T07:16:15.818Z,94776.39
2019-04-25T07:18:45.506Z,94764.20
2019-04-25T07:21:16.096Z,94766.88
2019-04-25T07:23:46.356Z,94765.50
2019-04-25T07:26:19.493Z,94761.31
2019-04-25T07:31:48.050Z,94760.70
2019-04-25T07:34:19.355Z,94761.59
2019-04-25T07:36:50.746Z,94760.90
2019-04-25T07:39:20.669Z,94764.73
2019-04-25T07:41:50.454Z,94762.06
2019-04-25T07:44:24.622Z,94759.23
2019-04-25T07:46:51.639Z,94754.72
2019-04-25T07:49:21.374Z,94757.09
2019-04-25T07:51:51.079Z,94759.23
2019-04-25T07:54:20.772Z,94754.37
2019-04-25T07:56:50.441Z,94756.06
2019-04-25T07:59:21.512Z,94754.41
2019-04-25T08:01:53.953Z,94744.49
2019-04-25T08:04:24.885Z,94747.58
2019-04-25T08:06:57.049Z,94737.73
2019-04-25T08:09:27.507Z,94740.00
2019-04-25T08:11:57.886Z,94734.13
2019-04-25T08:14:33.892Z,94734.51
2019-04-25T08:17:05.087Z,94738.23
2019-04-25T08:19:35.594Z,94738.83
2019-04-25T08:22:05.313Z,94739.20
2019-04-25T08:24:37.124Z,94738.50
2019-04-25T08:27:07.147Z,94738.83
2019-04-25T08:29:39.427Z,94734.88
2019-04-25T08:32:08.158Z,94733.77
2019-04-25T08:34:38.598Z,94730.98
2019-04-25T08:37:18.071Z,94735.61
2019-04-25T08:39:40.146Z,94732.91
2019-04-25T08:42:09.769Z,94728.02
2019-04-25T08:44:39.511Z,94724.75
2019-04-25T08:47:09.218Z,94720.79
2019-04-25T08:49:40.518Z,94726.65
2019-04-25T08:52:10.136Z,94721.89
2019-04-25T08:54:57.607Z,94726.38
2019-04-25T08:57:45.413Z,94714.75
2019-04-25T09:00:19.746Z,94709.81
2019-04-25T09:02:54.473Z,94715.00
2019-04-25T09:05:38.857Z,94710.75
2019-04-25T09:08:08.740Z,94712.33
2019-04-25T09:10:39.973Z,94708.72
2019-04-25T09:13:09.814Z,94710.02
2019-04-25T09:15:39.553Z,94712.10
2019-04-25T09:18:09.294Z,94713.34
2019-04-25T09:20:40.845Z,94705.17
2019-04-25T09:23:10.357Z,94707.41
2019-04-25T09:25:40.678Z,94708.16
2019-04-25T09:28:10.932Z,94709.97
2019-04-25T09:30:40.799Z,94709.23
2019-04-25T09:33:10.517Z,94706.88
2019-04-25T09:35:40.204Z,94702.36
2019-04-25T09:38:10.070Z,94696.27
2019-04-25T09:40:39.720Z,94695.38
2019-04-25T09:43:09.595Z,94698.29
2019-04-25T09:45:41.626Z,94694.44
2019-04-25T09:48:23.247Z,94692.52
2019-04-25T09:51:07.398Z,94696.17
2019-04-25T09:53:44.730Z,94700.47
2019-04-25T09:56:11.566Z,94697.30
2019-04-25T09:58:57.857Z,94700.41
2019-04-25T10:01:27.947Z,94697.19
2019-04-25T10:03:57.605Z,94691.36
2019-04-25T10:06:27.442Z,94691.38
2019-04-25T10:08:57.132Z,94678.15
2019-04-25T10:11:26.857Z,94678.70
2019-04-25T10:14:13.529Z,94676.52
2019-04-25T10:16:44.498Z,94673.09
2019-04-25T10:19:14.745Z,94676.02
2019-04-25T10:21:45.193Z,94670.73
2019-04-25T10:24:15.133Z,94669.38
2019-04-25T10:26:45.180Z,94661.61
2019-04-25T10:29:16.026Z,94667.51
2019-04-25T10:31:46.934Z,94656.13
2019-04-25T10:34:16.581Z,94662.59
2019-04-25T10:36:47.569Z,94649.75
2019-04-25T10:39:17.331Z,94647.14
2019-04-25T10:41:48.122Z,94645.59
2019-04-25T10:44:18.199Z,94645.59
2019-04-25T10:46:48.499Z,94650.84
2019-04-25T10:49:18.231Z,94650.25
2019-04-25T10:51:48.052Z,94648.97
2019-04-25T10:54:19.030Z,94645.23
2019-04-25T10:56:48.647Z,94635.84
2019-04-25T10:59:18.304Z,94639.00
2019-04-25T11:01:48.913Z,94641.84
2019-04-25T11:04:20.542Z,94641.73
2019-04-25T11:06:50.179Z,94645.14
2019-04-25T11:09:21.545Z,94626.05
2019-04-25T11:11:52.350Z,94623.73
2019-04-25T11:14:23.805Z,94633.37
2019-04-25T11:16:55.217Z,94630.67
2019-04-25T11:19:24.992Z,94626.09
2019-04-25T11:21:54.647Z,94624.34
2019-04-25T11:24:24.266Z,94624.34
2019-04-25T11:26:55.238Z,94626.39
2019-04-25T11:29:25.542Z,94623.20
2019-04-25T11:31:55.260Z,94626.05
2019-04-25T11:34:24.957Z,94613.11
2019-04-25T11:36:54.726Z,94605.16
2019-04-25T11:39:37.939Z,94605.16
2019-04-25T11:42:08.527Z,94610.38
2019-04-25T11:44:38.813Z,94610.27
2019-04-25T11:47:08.785Z,94610.27
2019-04-25T11:49:38.827Z,94613.22
2019-04-25T11:52:09.815Z,94611.63
2019-04-25T11:54:39.469Z,94608.08
2019-04-25T11:57:09.094Z,94616.12
2019-04-25T11:59:40.096Z,94626.05
2019-04-25T12:02:11.364Z,94617.75
2019-04-25T12:04:46.223Z,94612.91
2019-04-25T12:07:16.942Z,94605.09
2019-04-25T12:09:47.090Z,94607.64
2019-04-25T12:12:23.440Z,94615.81
2019-04-25T12:14:55.414Z,94622.34
2019-04-25T12:17:25.453Z,94612.50
2019-04-25T12:19:56.183Z,94622.45
2019-04-25T12:22:27.408Z,94632.33
2019-04-25T12:24:57.105Z,94625.70
2019-04-25T12:27:26.734Z,94623.70
2019-04-25T12:29:57.285Z,94615.88
2019-04-25T12:32:27.140Z,94624.26
2019-04-25T12:34:56.784Z,94622.82
2019-04-25T12:37:50.354Z,94623.55
2019-04-25T12:40:20.063Z,94619.71
2019-04-25T12:42:49.791Z,94610.55
2019-04-25T12:45:21.095Z,94603.88
2019-04-25T12:47:56.157Z,94609.19
2019-04-25T12:50:24.733Z,94611.11
2019-04-25T12:52:55.980Z,94610.05
2019-04-25T12:55:25.885Z,94611.30
2019-04-25T12:57:56.573Z,94602.67
2019-04-25T13:00:29.580Z,94604.53
2019-04-25T13:02:59.202Z,94595.09
2019-04-25T13:05:28.902Z,94589.31
2019-04-25T13:07:59.898Z,94601.58
2019-04-25T13:10:30.166Z,94598.78
2019-04-25T13:12:59.835Z,94597.07
2019-04-25T13:15:29.759Z,94591.33
2019-04-25T13:17:59.500Z,94591.74
2019-04-25T13:20:29.193Z,94583.95
2019-04-25T13:22:58.855Z,94585.90
2019-04-25T13:25:29.720Z,94584.64
2019-04-25T13:28:03.423Z,94585.26
2019-04-25T13:30:34.353Z,94590.78
2019-04-25T13:33:06.528Z,94586.69
2019-04-25T13:35:38.048Z,94580.98
2019-04-25T13:38:08.620Z,94588.88
2019-04-25T13:40:38.504Z,94592.92
2019-04-25T13:43:08.223Z,94597.78
2019-04-25T13:45:37.959Z,94592.80
2019-04-25T13:48:08.650Z,94585.72
2019-04-25T13:50:39.789Z,94584.67
2019-04-25T13:53:10.027Z,94579.59
2019-04-25T13:55:40.598Z,94572.94
2019-04-25T13:58:11.184Z,94571.38
2019-04-25T14:00:41.907Z,94573.17
2019-04-25T14:03:11.707Z,94568.58
2019-04-25T14:05:41.542Z,94574.39
2019-04-25T14:08:13.452Z,94573.94
2019-04-25T14:10:47.317Z,94570.03
2019-04-25T14:13:16.573Z,94576.44
2019-04-25T14:15:47.894Z,94571.59
2019-04-25T14:18:19.317Z,94572.27
2019-04-25T14:20:50.630Z,94560.48
2019-04-25T14:23:20.614Z,94565.66
2019-04-25T14:25:51.365Z,94573.05
2019-04-25T14:28:21.913Z,94563.41
2019-04-25T14:30:51.904Z,94564.81
2019-04-25T14:33:23.114Z,94568.23
2019-04-25T14:35:53.342Z,94563.12
2019-04-25T14:38:25.621Z,94569.35
2019-04-25T14:40:55.924Z,94564.64
2019-04-25T14:43:26.205Z,94555.39
2019-04-25T14:45:56.527Z,94549.27
2019-04-25T14:48:27.185Z,94550.98
2019-04-25T14:50:57.397Z,94546.85
2019-04-25T14:53:28.004Z,94545.16
2019-04-25T14:56:05.179Z,94549.70
2019-04-25T14:58:36.479Z,94554.20
2019-04-25T15:01:06.271Z,94551.98
2019-04-25T15:03:35.934Z,94553.58
2019-04-25T15:06:05.722Z,94545.53
2019-04-25T15:08:35.351Z,94550.91
2019-04-25T15:11:05.578Z,94551.59
2019-04-25T15:13:35.301Z,94549.55
2019-04-25T15:16:05.048Z,94548.03
2019-04-25T15:18:46.075Z,94547.22
2019-04-25T15:21:06.880Z,94542.45
2019-04-25T15:23:36.501Z,94541.07
2019-04-25T15:26:07.651Z,94534.66
2019-04-25T15:28:37.341Z,94521.63
2019-04-25T15:31:07.065Z,94525.92
2019-04-25T15:33:38.549Z,94536.02
2019-04-25T15:36:09.839Z,94532.05
2019-04-25T15:38:50.278Z,94524.89
2019-04-25T15:41:25.121Z,94526.85
2019-04-25T15:44:08.572Z,94524.17
2019-04-25T15:46:42.415Z,94521.30
2019-04-25T15:49:11.207Z,94516.50
2019-04-25T15:51:40.466Z,94516.44
2019-04-25T15:54:10.132Z,94512.80
2019-04-25T15:56:39.840Z,94517.59
2019-04-25T15:59:09.478Z,94512.53
2019-04-25T16:01:39.164Z,94513.61
2019-04-25T16:04:08.849Z,94517.80
2019-04-25T16:06:38.581Z,94521.70
2019-04-25T16:09:10.364Z,94521.70
2019-04-25T16:11:40.549Z,94516.22
2019-04-25T16:14:11.552Z,94513.39
2019-04-25T16:16:41.302Z,94502.24
2019-04-25T16:19:11.998Z,94500.56
2019-04-25T16:21:42.213Z,94506.22
2019-04-25T16:24:12.103Z,94507.16
2019-04-25T16:26:42.481Z,94505.90
2019-04-25T16:29:13.878Z,94515.45
2019-04-25T16:31:43.627Z,94500.74
2019-04-25T16:34:13.329Z,94512.47
2019-04-25T16:36:43.031Z,94506.66
2019-04-25T16:39:17.216Z,94505.08
2019-04-25T16:41:48.152Z,94506.06
2019-04-25T16:44:19.427Z,94512.38
2019-04-25T16:46:49.234Z,94517.72
2019-04-25T16:49:18.933Z,94515.48
2019-04-25T16:51:48.589Z,94516.16
2019-04-25T16:54:19.662Z,94507.91
2019-04-25T16:56:49.432Z,94508.02
2019-04-25T16:59:19.131Z,94505.80
2019-04-25T17:01:49.103Z,94504.48
2019-04-25T17:04:19.964Z,94505.84
2019-04-25T17:06:49.957Z,94508.95
2019-04-25T17:09:19.870Z,94502.88
2019-04-25T17:11:49.488Z,94499.19
2019-04-25T17:14:23.732Z,94501.47
2019-04-25T17:16:55.044Z,94505.27
2019-04-25T17:19:26.318Z,94500.73
2019-04-25T17:21:56.042Z,94498.59
2019-04-25T17:24:25.671Z,94498.34
2019-04-25T17:26:55.443Z,94502.87
2019-04-25T17:29:25.088Z,94499.70
2019-04-25T17:31:59.371Z,94509.11
2019-04-25T17:34:33.874Z,94501.08
2019-04-25T17:37:17.459Z,94497.73
2019-04-25T17:39:51.795Z,94507.39
2019-04-25T17:42:21.423Z,94506.28
2019-04-25T17:44:51.078Z,94516.44
2019-04-25T17:47:20.708Z,94520.84
2019-04-25T17:49:50.368Z,94516.44
2019-04-25T17:52:19.977Z,94520.60
2019-04-25T17:54:49.725Z,94515.83
2019-04-25T17:57:19.350Z,94512.85
2019-04-25T17:59:49.010Z,94512.14
2019-04-25T18:02:18.716Z,94512.61
2019-04-25T18:04:48.338Z,94511.89
2019-04-25T18:07:17.998Z,94507.48
2019-04-25T18:09:47.629Z,94509.21
2019-04-25T18:12:17.358Z,94508.53
2019-04-25T18:14:47.453Z,94503.81
2019-04-25T18:17:17.187Z,94505.37
2019-04-25T18:19:51.150Z,94512.30
2019-04-25T18:22:28.207Z,94514.52
2019-04-25T18:25:02.237Z,94508.04
2019-04-25T18:27:33.615Z,94509.01
2019-04-25T18:30:06.145Z,94509.01
2019-04-25T18:32:37.306Z,94511.21
2019-04-25T18:35:11.525Z,94507.59
2019-04-25T18:37:45.734Z,94501.84
2019-04-25T18:40:25.946Z,94496.97
2019-04-25T18:42:57.285Z,94494.41
2019-04-25T18:45:28.658Z,94503.30
2019-04-25T18:47:58.281Z,94507.00
2019-04-25T18:50:29.576Z,94508.65
2019-04-25T18:53:06.622Z,94513.56
2019-04-25T18:55:43.901Z,94516.30
2019-04-25T18:58:15.170Z,94525.57
2019-04-25T19:00:46.473Z,94525.11
2019-04-25T19:03:26.589Z,94520.75
2019-04-25T19:06:00.438Z,94525.77
2019-04-25T19:08:30.136Z,94532.59
2019-04-25T19:10:59.932Z,94527.95
2019-04-25T19:13:29.682Z,94532.86
2019-04-25T19:15:59.393Z,94530.87
2019-04-25T19:18:29.040Z,94532.19
2019-04-25T19:20:59.726Z,94534.67
2019-04-25T19:23:29.458Z,94533.70
2019-04-25T19:25:59.092Z,94534.28
2019-04-25T19:28:28.759Z,94535.02
2019-04-25T19:30:58.384Z,94522.35
2019-04-25T19:33:35.651Z,94524.84
2019-04-25T19:35:59.427Z,94530.64
2019-04-25T19:38:29.176Z,94538.50
2019-04-25T19:41:03.264Z,94545.86
2019-04-25T19:43:34.648Z,94537.72
2019-04-25T19:46:04.277Z,94542.81
2019-04-25T19:48:34.021Z,94543.38
2019-04-25T19:51:03.645Z,94547.97
2019-04-25T19:53:33.339Z,94550.03
2019-04-25T19:56:02.996Z,94544.56
2019-04-25T19:58:32.719Z,94549.94
2019-04-25T20:01:02.451Z,94552.97
2019-04-25T20:03:49.423Z,94541.41
2019-04-25T20:06:28.792Z,94553.31
2019-04-25T20:09:09.238Z,94557.24
2019-04-25T20:11:49.348Z,94548.00
2019-04-25T20:14:19.225Z,94553.52
2019-04-25T20:16:49.643Z,94559.50
2019-04-25T20:19:19.462Z,94563.02
2019-04-25T20:21:49.968Z,94564.75
2019-04-25T20:24:19.791Z,94564.98
2019-04-25T20:26:50.391Z,94567.81
2019-04-25T20:29:20.357Z,94572.52
2019-04-25T20:31:50.666Z,94566.13
2019-04-25T20:34:20.442Z,94574.07
2019-04-25T20:36:50.066Z,94568.81
2019-04-25T20:39:19.754Z,94571.56
2019-04-25T20:41:49.761Z,94578.61
2019-04-25T20:44:19.640Z,94572.70
2019-04-25T20:46:49.295Z,94576.60
2019-04-25T20:49:18.950Z,94571.81
2019-04-25T20:51:48.637Z,94571.59
2019-04-25T20:54:18.269Z,94571.12
2019-04-25T20:56:49.121Z,94574.89
2019-04-25T20:59:19.232Z,94576.12
2019-04-25T21:01:49.729Z,94575.61
2019-04-25T21:04:37.661Z,94575.91
2019-04-25T21:07:07.457Z,94574.40
2019-04-25T21:09:37.155Z,94576.02
2019-04-25T21:12:06.778Z,94569.83
2019-04-25T21:14:40.547Z,94568.30
2019-04-25T21:17:11.842Z,94565.45
2019-04-25T21:19:43.102Z,94569.51
2019-04-25T21:22:12.757Z,94560.97
2019-04-25T21:24:43.558Z,94549.27
2019-04-25T21:27:13.283Z,94550.55
2019-04-25T21:29:42.898Z,94556.58
2019-04-25T21:32:12.608Z,94554.28
2019-04-25T21:34:42.261Z,94555.19
2019-04-25T21:37:12.536Z,94549.80
2019-04-25T21:39:52.243Z,94554.59
2019-04-25T21:42:23.370Z,94553.77
2019-04-25T21:44:54.089Z,94551.66
2019-04-25T21:47:24.006Z,94561.08
2019-04-25T21:49:54.356Z,94559.36
2019-04-25T21:52:24.498Z,94564.13
2019-04-25T21:54:55.580Z,94556.64
2019-04-25T21:57:25.708Z,94551.23
2019-04-25T22:00:03.063Z,94554.70
2019-04-25T22:02:28.527Z,94562.02
2019-04-25T22:04:58.737Z,94564.74
2019-04-25T22:07:28.949Z,94563.33
2019-04-25T22:09:59.437Z,94563.64
2019-04-25T22:12:29.379Z,94558.14
2019-04-25T22:14:59.322Z,94558.96
2019-04-25T22:17:29.410Z,94559.98
2019-04-25T22:19:59.824Z,94557.73
2019-04-25T22:22:30.022Z,94552.04
2019-04-25T22:25:00.470Z,94553.16
2019-04-25T22:27:33.096Z,94559.37
2019-04-25T22:30:03.633Z,94553.96
2019-04-25T22:32:51.894Z,94541.34
2019-04-25T22:35:32.106Z,94548.02
2019-04-25T22:38:04.284Z,94547.70
2019-04-25T22:40:34.155Z,94553.98
2019-04-25T22:43:04.992Z,94544.05
2019-04-25T22:45:36.905Z,94546.05
2019-04-25T22:48:06.722Z,94550.82
2019-04-25T22:50:36.702Z,94547.55
2019-04-25T22:53:06.361Z,94541.05
2019-04-25T22:55:36.253Z,94545.69
2019-04-25T22:58:05.880Z,94546.40
2019-04-25T23:00:37.189Z,94540.20
2019-04-25T23:03:09.346Z,94541.23
2019-04-25T23:05:52.569Z,94541.41
2019-04-25T23:08:22.622Z,94533.10
2019-04-25T23:10:52.229Z,94529.22
2019-04-25T23:13:21.851Z,94533.56
2019-04-25T23:15:51.506Z,94530.53
2019-04-25T23:18:21.664Z,94530.48
2019-04-25T23:20:51.327Z,94528.06
2019-04-25T23:23:21.395Z,94530.37
2019-04-25T23:26:05.188Z,94533.57
2019-04-25T23:28:40.533Z,94529.28
2019-04-25T23:31:14.688Z,94532.86
2019-04-25T23:33:44.920Z,94526.23
2019-04-25T23:36:15.395Z,94529.28
2019-04-25T23:38:45.218Z,94524.62
2019-04-25T23:41:15.710Z,94530.27
2019-04-25T23:43:45.608Z,94529.66
2019-04-25T23:46:16.256Z,94529.44
2019-04-25T23:48:46.040Z,94530.31
2019-04-25T23:51:15.708Z,94523.03
2019-04-25T23:53:45.511Z,94523.61
2019-04-25T23:56:15.244Z,94519.88
2019-04-25T23:58:45.368Z,94527.56
